createdAt,value
2017-01-20T00:00:45.194Z,0
2017-01-20T00:01:45.234Z,0
2017-01-20T00:02:45.251Z,0
2017-01-20T00:03:44.880Z,0
2017-01-20T00:04:45.701Z,0
2017-01-20T00:05:45.321Z,0
2017-01-20T00:06:45.350Z,0
2017-01-20T00:07:44.979Z,0
2017-01-20T00:08:44.999Z,0
2017-01-20T00:09:44.636Z,0
2017-01-20T00:10:45.053Z,0
2017-01-20T00:11:45.479Z,0
2017-01-20T00:12:44.713Z,0
2017-01-20T00:13:45.559Z,0
2017-01-20T00:14:45.556Z,0
2017-01-20T00:15:45.586Z,0
2017-01-20T00:16:44.810Z,0
2017-01-20T00:17:45.238Z,0
2017-01-20T00:18:45.272Z,0
2017-01-20T00:19:44.887Z,0
2017-01-20T00:20:45.317Z,0
2017-01-20T00:21:45.741Z,0
2017-01-20T00:22:45.362Z,0
2017-01-20T00:23:45.391Z,0
2017-01-20T00:24:46.202Z,0
2017-01-20T00:25:45.040Z,0
2017-01-20T00:26:45.864Z,0
2017-01-20T00:27:45.498Z,0
2017-01-20T00:28:45.918Z,0
2017-01-20T00:29:45.147Z,0
2017-01-20T00:30:45.568Z,0
2017-01-20T00:31:45.601Z,0
2017-01-20T00:32:45.623Z,0
2017-01-20T00:33:46.042Z,0
2017-01-20T00:34:45.675Z,0
2017-01-20T00:35:45.688Z,0
2017-01-20T00:36:45.717Z,0
2017-01-20T00:37:46.145Z,0
2017-01-20T00:38:46.166Z,0
2017-01-20T00:39:45.795Z,0
2017-01-20T00:40:45.827Z,0
2017-01-20T00:41:46.636Z,0
2017-01-20T00:42:46.657Z,0
2017-01-20T00:43:46.693Z,0
2017-01-20T00:44:46.314Z,0
2017-01-20T00:45:46.347Z,0
2017-01-20T00:46:45.580Z,0
2017-01-20T00:47:46.392Z,0
2017-01-20T00:48:45.629Z,0
2017-01-20T00:49:46.846Z,0
2017-01-20T00:50:46.075Z,0
2017-01-20T00:51:46.896Z,0
2017-01-20T00:52:46.524Z,0
2017-01-20T00:53:46.549Z,0
2017-01-20T00:54:46.174Z,0
2017-01-20T00:55:46.598Z,0
2017-01-20T00:56:46.230Z,0
2017-01-20T00:57:45.860Z,0
2017-01-20T00:58:47.064Z,0
2017-01-20T00:59:46.698Z,0
2017-01-20T01:00:46.714Z,0
2017-01-20T01:01:45.957Z,0
2017-01-20T01:02:46.411Z,0
2017-01-20T01:03:46.790Z,0
2017-01-20T01:04:46.429Z,0
2017-01-20T01:05:46.850Z,0
2017-01-20T01:06:46.094Z,0
2017-01-20T01:07:46.907Z,0
2017-01-20T01:08:46.532Z,0
2017-01-20T01:09:46.561Z,0
2017-01-20T01:10:46.581Z,0
2017-01-20T01:11:46.610Z,0
2017-01-20T01:12:47.024Z,0
2017-01-20T01:13:47.062Z,0
2017-01-20T01:14:46.283Z,0
2017-01-20T01:15:46.708Z,0
2017-01-20T01:16:46.736Z,0
2017-01-20T01:17:47.550Z,0
2017-01-20T01:18:46.777Z,0
2017-01-20T01:19:46.806Z,0
2017-01-20T01:20:47.223Z,0
2017-01-20T01:21:47.651Z,0
2017-01-20T01:22:47.677Z,0
2017-01-20T01:23:46.909Z,0
2017-01-20T01:24:47.337Z,0
2017-01-20T01:25:47.350Z,0
2017-01-20T01:26:47.378Z,0
2017-01-20T01:27:46.995Z,0
2017-01-20T01:28:47.027Z,0
2017-01-20T01:29:47.048Z,0
2017-01-20T01:30:47.085Z,0
2017-01-20T01:31:47.502Z,0
2017-01-20T01:32:47.531Z,0
2017-01-20T01:33:47.547Z,0
2017-01-20T01:34:47.580Z,0
2017-01-20T01:35:47.608Z,0
2017-01-20T01:36:47.225Z,0
2017-01-20T01:37:47.254Z,0
2017-01-20T01:38:48.078Z,0
2017-01-20T01:39:46.911Z,0
2017-01-20T01:40:46.943Z,0
2017-01-20T01:41:47.360Z,0
2017-01-20T01:42:48.173Z,0
2017-01-20T01:43:48.198Z,0
2017-01-20T01:44:47.430Z,0
2017-01-20T01:45:47.851Z,0
2017-01-20T01:46:47.476Z,0
2017-01-20T01:47:47.109Z,0
2017-01-20T01:48:47.542Z,0
2017-01-20T01:49:47.958Z,0
2017-01-20T01:50:47.983Z,0
2017-01-20T01:51:48.004Z,0
2017-01-20T01:52:48.024Z,0
2017-01-20T01:53:48.053Z,0
2017-01-20T01:54:48.082Z,0
2017-01-20T01:55:47.710Z,0
2017-01-20T01:56:48.131Z,0
2017-01-20T01:57:47.360Z,0
2017-01-20T01:58:47.781Z,0
2017-01-20T01:59:48.597Z,0
2017-01-20T02:00:48.618Z,0
2017-01-20T02:01:48.254Z,0
2017-01-20T02:02:47.883Z,0
2017-01-20T02:03:47.931Z,0
2017-01-20T02:04:48.336Z,0
2017-01-20T02:05:48.754Z,0
2017-01-20T02:06:47.977Z,0
2017-01-20T02:07:48.412Z,0
2017-01-20T02:08:48.436Z,0
2017-01-20T02:09:48.453Z,0
2017-01-20T02:10:48.481Z,0
2017-01-20T02:11:48.506Z,0
2017-01-20T02:12:48.135Z,0
2017-01-20T02:13:48.159Z,0
2017-01-20T02:14:48.184Z,0
2017-01-20T02:15:48.207Z,0
2017-01-20T02:16:49.026Z,0
2017-01-20T02:17:48.254Z,0
2017-01-20T02:18:49.075Z,0
2017-01-20T02:19:48.312Z,0
2017-01-20T02:20:48.332Z,0
2017-01-20T02:21:47.962Z,0
2017-01-20T02:22:48.386Z,0
2017-01-20T02:23:48.807Z,0
2017-01-20T02:24:48.829Z,0
2017-01-20T02:25:48.856Z,0
2017-01-20T02:26:48.477Z,0
2017-01-20T02:27:48.117Z,0
2017-01-20T02:28:48.931Z,0
2017-01-20T02:29:48.956Z,0
2017-01-20T02:30:48.193Z,0
2017-01-20T02:31:48.613Z,0
2017-01-20T02:32:49.066Z,0
2017-01-20T02:33:49.059Z,0
2017-01-20T02:34:48.687Z,0
2017-01-20T02:35:49.106Z,0
2017-01-20T02:36:48.737Z,0
2017-01-20T02:37:48.765Z,0
2017-01-20T02:38:48.399Z,0
2017-01-20T02:39:48.413Z,0
2017-01-20T02:40:49.227Z,0
2017-01-20T02:41:49.252Z,0
2017-01-20T02:42:49.668Z,0
2017-01-20T02:43:49.305Z,0
2017-01-20T02:44:48.934Z,0
2017-01-20T02:45:49.346Z,0
2017-01-20T02:46:48.586Z,0
2017-01-20T02:47:49.395Z,0
2017-01-20T02:48:49.820Z,0
2017-01-20T02:49:49.053Z,0
2017-01-20T02:50:49.077Z,0
2017-01-20T02:51:49.098Z,0
2017-01-20T02:52:49.527Z,0
2017-01-20T02:53:49.143Z,0
2017-01-20T02:54:49.580Z,0
2017-01-20T02:55:49.202Z,0
2017-01-20T02:56:50.023Z,0
2017-01-20T02:57:50.033Z,0
2017-01-20T02:58:49.678Z,0
2017-01-20T02:59:48.903Z,0
2017-01-20T03:00:49.325Z,0
2017-01-20T03:01:49.361Z,0
2017-01-20T03:02:48.979Z,0
2017-01-20T03:03:49.399Z,0
2017-01-20T03:04:49.431Z,0
2017-01-20T03:05:50.248Z,0
2017-01-20T03:06:49.476Z,0
2017-01-20T03:07:49.909Z,0
2017-01-20T03:08:49.130Z,0
2017-01-20T03:09:49.955Z,0
2017-01-20T03:10:49.980Z,0
2017-01-20T03:11:49.600Z,0
2017-01-20T03:12:49.629Z,0
2017-01-20T03:13:49.653Z,0
2017-01-20T03:14:50.470Z,0
2017-01-20T03:15:49.703Z,0
2017-01-20T03:16:50.116Z,0
2017-01-20T03:17:50.553Z,0
2017-01-20T03:18:50.569Z,0
2017-01-20T03:19:50.202Z,0
2017-01-20T03:20:50.223Z,0
2017-01-20T03:21:50.640Z,0
2017-01-20T03:22:50.657Z,0
2017-01-20T03:23:49.900Z,0
2017-01-20T03:24:50.717Z,0
2017-01-20T03:25:50.738Z,0
2017-01-20T03:26:50.375Z,0
2017-01-20T03:27:50.395Z,0
2017-01-20T03:28:49.629Z,0
2017-01-20T03:29:50.845Z,0
2017-01-20T03:30:50.862Z,0
2017-01-20T03:31:50.102Z,0
2017-01-20T03:32:50.115Z,0
2017-01-20T03:33:50.148Z,0
2017-01-20T03:34:49.781Z,0
2017-01-20T03:35:49.801Z,0
2017-01-20T03:36:50.214Z,0
2017-01-20T03:37:50.639Z,0
2017-01-20T03:38:51.059Z,0
2017-01-20T03:39:50.697Z,0
2017-01-20T03:40:50.713Z,0
2017-01-20T03:41:50.746Z,0
2017-01-20T03:42:49.966Z,0
2017-01-20T03:43:50.784Z,0
2017-01-20T03:44:50.422Z,0
2017-01-20T03:45:51.224Z,0
2017-01-20T03:46:50.862Z,0
2017-01-20T03:47:50.490Z,0
2017-01-20T03:48:50.144Z,0
2017-01-20T03:49:50.934Z,0
2017-01-20T03:50:50.965Z,0
2017-01-20T03:51:50.590Z,0
2017-01-20T03:52:51.023Z,0
2017-01-20T03:53:50.644Z,0
2017-01-20T03:54:51.056Z,0
2017-01-20T03:55:51.085Z,0
2017-01-20T03:56:51.113Z,0
2017-01-20T03:57:50.342Z,0
2017-01-20T03:58:51.547Z,0
2017-01-20T03:59:50.400Z,0
2017-01-20T04:00:51.618Z,0
2017-01-20T04:01:51.629Z,0
2017-01-20T04:02:51.254Z,0
2017-01-20T04:03:51.287Z,0
2017-01-20T04:04:50.519Z,0
2017-01-20T04:05:50.960Z,0
2017-01-20T04:06:50.965Z,0
2017-01-20T04:07:50.997Z,0
2017-01-20T04:08:50.610Z,0
2017-01-20T04:09:51.431Z,0
2017-01-20T04:10:51.859Z,0
2017-01-20T04:11:50.687Z,0
2017-01-20T04:12:50.708Z,0
2017-01-20T04:13:50.735Z,0
2017-01-20T04:14:50.762Z,0
2017-01-20T04:15:51.582Z,0
2017-01-20T04:16:51.999Z,0
2017-01-20T04:17:52.020Z,0
2017-01-20T04:18:51.252Z,0
2017-01-20T04:19:51.673Z,0
2017-01-20T04:20:52.093Z,0
2017-01-20T04:21:51.322Z,0
2017-01-20T04:22:50.959Z,0
2017-01-20T04:23:51.378Z,0
2017-01-20T04:24:52.191Z,0
2017-01-20T04:25:52.211Z,0
2017-01-20T04:26:51.053Z,0
2017-01-20T04:27:51.469Z,0
2017-01-20T04:28:52.290Z,0
2017-01-20T04:29:51.511Z,0
2017-01-20T04:30:51.551Z,0
2017-01-20T04:31:51.964Z,0
2017-01-20T04:32:51.992Z,0
2017-01-20T04:33:52.011Z,0
2017-01-20T04:34:52.441Z,0
2017-01-20T04:35:52.066Z,0
2017-01-20T04:36:51.294Z,0
2017-01-20T04:37:52.115Z,0
2017-01-20T04:38:51.753Z,0
2017-01-20T04:39:51.777Z,0
2017-01-20T04:40:52.594Z,0
2017-01-20T04:41:52.611Z,0
2017-01-20T04:42:52.239Z,0
2017-01-20T04:43:51.863Z,0
2017-01-20T04:44:51.892Z,0
2017-01-20T04:45:52.320Z,0
2017-01-20T04:46:51.949Z,0
2017-01-20T04:47:52.358Z,0
2017-01-20T04:48:52.787Z,0
2017-01-20T04:49:52.404Z,0
2017-01-20T04:50:52.049Z,0
2017-01-20T04:51:52.061Z,0
2017-01-20T04:52:52.091Z,0
2017-01-20T04:53:52.507Z,0
2017-01-20T04:54:52.537Z,0
2017-01-20T04:55:52.162Z,0
2017-01-20T04:56:52.585Z,0
2017-01-20T04:57:52.207Z,0
2017-01-20T04:58:52.643Z,0
2017-01-20T04:59:51.860Z,0
2017-01-20T05:00:52.318Z,0
2017-01-20T05:01:52.305Z,0
2017-01-20T05:02:52.730Z,0
2017-01-20T05:03:53.151Z,0
2017-01-20T05:04:52.772Z,0
2017-01-20T05:05:52.404Z,0
2017-01-20T05:06:52.433Z,0
2017-01-20T05:07:52.458Z,0
2017-01-20T05:08:52.083Z,0
2017-01-20T05:09:52.112Z,0
2017-01-20T05:10:53.321Z,0
2017-01-20T05:11:52.946Z,0
2017-01-20T05:12:53.406Z,0
2017-01-20T05:13:52.999Z,0
2017-01-20T05:14:52.227Z,0
2017-01-20T05:15:52.656Z,0
2017-01-20T05:16:53.082Z,0
2017-01-20T05:17:52.742Z,0
2017-01-20T05:18:52.331Z,0
2017-01-20T05:19:53.560Z,0
2017-01-20T05:20:53.176Z,0
2017-01-20T05:21:52.805Z,0
2017-01-20T05:22:52.437Z,0
2017-01-20T05:23:53.250Z,0
2017-01-20T05:24:53.663Z,0
2017-01-20T05:25:52.892Z,0
2017-01-20T05:26:52.529Z,0
2017-01-20T05:27:53.346Z,0
2017-01-20T05:28:52.974Z,0
2017-01-20T05:29:52.639Z,0
2017-01-20T05:30:52.620Z,0
2017-01-20T05:31:53.053Z,0
2017-01-20T05:32:52.673Z,0
2017-01-20T05:33:53.094Z,0
2017-01-20T05:34:53.521Z,0
2017-01-20T05:35:53.544Z,0
2017-01-20T05:36:52.768Z,0
2017-01-20T05:37:53.597Z,0
2017-01-20T05:38:52.828Z,0
2017-01-20T05:39:52.851Z,0
2017-01-20T05:40:53.260Z,0
2017-01-20T05:41:52.901Z,0
2017-01-20T05:42:53.713Z,0
2017-01-20T05:43:54.131Z,0
2017-01-20T05:44:53.363Z,0
2017-01-20T05:45:53.391Z,0
2017-01-20T05:46:54.208Z,0
2017-01-20T05:47:53.438Z,0
2017-01-20T05:48:53.486Z,0
2017-01-20T05:49:53.487Z,0
2017-01-20T05:50:54.306Z,0
2017-01-20T05:51:53.933Z,0
2017-01-20T05:52:53.161Z,0
2017-01-20T05:53:53.197Z,0
2017-01-20T05:54:53.216Z,0
2017-01-20T05:55:54.035Z,0
2017-01-20T05:56:54.460Z,0
2017-01-20T05:57:53.694Z,0
2017-01-20T05:58:54.109Z,0
2017-01-20T05:59:54.131Z,0
2017-01-20T06:00:54.187Z,0
2017-01-20T06:01:53.388Z,0
2017-01-20T06:02:53.808Z,0
2017-01-20T06:03:54.238Z,0
2017-01-20T06:04:53.866Z,0
2017-01-20T06:05:54.279Z,0
2017-01-20T06:06:53.916Z,0
2017-01-20T06:07:54.729Z,0
2017-01-20T06:08:54.363Z,0
2017-01-20T06:09:54.389Z,0
2017-01-20T06:10:54.010Z,0
2017-01-20T06:11:54.427Z,0
2017-01-20T06:12:54.458Z,0
2017-01-20T06:13:54.081Z,0
2017-01-20T06:14:54.494Z,0
2017-01-20T06:15:54.155Z,0
2017-01-20T06:16:54.955Z,0
2017-01-20T06:17:54.572Z,0
2017-01-20T06:18:54.604Z,0
2017-01-20T06:19:54.241Z,0
2017-01-20T06:20:54.258Z,0
2017-01-20T06:21:55.083Z,0
2017-01-20T06:22:54.299Z,0
2017-01-20T06:23:55.118Z,0
2017-01-20T06:24:54.753Z,0
2017-01-20T06:25:54.378Z,0
2017-01-20T06:26:54.807Z,0
2017-01-20T06:27:54.427Z,0
2017-01-20T06:28:54.447Z,0
2017-01-20T06:29:55.272Z,0
2017-01-20T06:30:55.300Z,0
2017-01-20T06:31:54.126Z,0
2017-01-20T06:32:54.546Z,0
2017-01-20T06:33:54.974Z,0
2017-01-20T06:34:55.398Z,0
2017-01-20T06:35:55.417Z,0
2017-01-20T06:36:54.657Z,0
2017-01-20T06:37:54.666Z,0
2017-01-20T06:38:54.307Z,0
2017-01-20T06:39:54.323Z,0
2017-01-20T06:40:54.760Z,0
2017-01-20T06:41:54.781Z,0
2017-01-20T06:42:55.198Z,0
2017-01-20T06:43:55.235Z,0
2017-01-20T06:44:55.247Z,0
2017-01-20T06:45:54.900Z,0
2017-01-20T06:46:54.901Z,0
2017-01-20T06:47:54.925Z,0
2017-01-20T06:48:55.342Z,0
2017-01-20T06:49:54.579Z,0
2017-01-20T06:50:54.996Z,4
2017-01-20T06:51:55.027Z,0
2017-01-20T06:52:55.845Z,0
2017-01-20T06:53:55.866Z,4
2017-01-20T06:54:55.498Z,4
2017-01-20T06:55:55.123Z,4
2017-01-20T06:56:55.156Z,4
2017-01-20T06:57:55.581Z,4
2017-01-20T06:58:55.623Z,8
2017-01-20T06:59:55.234Z,8
2017-01-20T07:00:55.251Z,8
2017-01-20T07:01:55.292Z,12
2017-01-20T07:02:55.704Z,12
2017-01-20T07:03:56.122Z,12
2017-01-20T07:04:55.746Z,16
2017-01-20T07:05:55.383Z,20
2017-01-20T07:06:54.999Z,20
2017-01-20T07:07:55.824Z,24
2017-01-20T07:08:55.445Z,24
2017-01-20T07:09:55.082Z,28
2017-01-20T07:10:56.287Z,32
2017-01-20T07:11:55.932Z,36
2017-01-20T07:12:56.348Z,40
2017-01-20T07:13:55.577Z,40
2017-01-20T07:14:55.205Z,48
2017-01-20T07:15:56.030Z,48
2017-01-20T07:16:56.055Z,56
2017-01-20T07:17:55.676Z,60
2017-01-20T07:18:56.101Z,64
2017-01-20T07:19:56.129Z,68
2017-01-20T07:20:55.754Z,76
2017-01-20T07:21:56.570Z,80
2017-01-20T07:22:56.592Z,88
2017-01-20T07:23:55.848Z,92
2017-01-20T07:24:55.861Z,100
2017-01-20T07:25:55.918Z,104
2017-01-20T07:26:56.301Z,112
2017-01-20T07:27:55.924Z,116
2017-01-20T07:28:55.956Z,124
2017-01-20T07:29:56.377Z,132
2017-01-20T07:30:56.794Z,140
2017-01-20T07:31:56.430Z,148
2017-01-20T07:32:56.051Z,152
2017-01-20T07:33:56.476Z,160
2017-01-20T07:34:56.496Z,164
2017-01-20T07:35:56.137Z,172
2017-01-20T07:36:56.547Z,184
2017-01-20T07:37:55.785Z,188
2017-01-20T07:38:55.808Z,196
2017-01-20T07:39:56.232Z,204
2017-01-20T07:40:56.685Z,208
2017-01-20T07:41:56.265Z,216
2017-01-20T07:42:56.307Z,224
2017-01-20T07:43:56.331Z,232
2017-01-20T07:44:56.355Z,236
2017-01-20T07:45:56.769Z,248
2017-01-20T07:46:56.813Z,252
2017-01-20T07:47:56.827Z,260
2017-01-20T07:48:57.245Z,264
2017-01-20T07:49:56.884Z,272
2017-01-20T07:50:56.508Z,276
2017-01-20T07:51:56.129Z,284
2017-01-20T07:52:56.163Z,292
2017-01-20T07:53:56.970Z,296
2017-01-20T07:54:57.004Z,304
2017-01-20T07:55:56.632Z,308
2017-01-20T07:56:57.451Z,316
2017-01-20T07:57:56.686Z,324
2017-01-20T07:58:57.106Z,328
2017-01-20T07:59:57.522Z,336
2017-01-20T08:00:56.359Z,340
2017-01-20T08:01:57.183Z,348
2017-01-20T08:02:56.800Z,352
2017-01-20T08:03:56.833Z,356
2017-01-20T08:04:56.497Z,364
2017-01-20T08:05:57.672Z,368
2017-01-20T08:06:57.307Z,380
2017-01-20T08:07:57.727Z,380
2017-01-20T08:08:56.565Z,388
2017-01-20T08:09:56.584Z,392
2017-01-20T08:10:56.609Z,400
2017-01-20T08:11:57.069Z,408
2017-01-20T08:12:57.846Z,412
2017-01-20T08:13:56.687Z,420
2017-01-20T08:14:57.099Z,424
2017-01-20T08:15:57.528Z,432
2017-01-20T08:16:56.768Z,436
2017-01-20T08:17:56.788Z,440
2017-01-20T08:18:57.209Z,452
2017-01-20T08:19:56.833Z,456
2017-01-20T08:20:57.647Z,476
2017-01-20T08:21:57.275Z,500
2017-01-20T08:22:57.699Z,528
2017-01-20T08:23:57.719Z,556
2017-01-20T08:24:57.744Z,596
2017-01-20T08:25:57.377Z,640
2017-01-20T08:26:57.806Z,720
2017-01-20T08:27:57.042Z,820
2017-01-20T08:28:58.268Z,1000
2017-01-20T08:29:57.878Z,1224
2017-01-20T08:30:57.903Z,1452
2017-01-20T08:31:57.529Z,1628
2017-01-20T08:32:57.953Z,1712
2017-01-20T08:33:58.373Z,1716
2017-01-20T08:34:57.606Z,1724
2017-01-20T08:35:57.634Z,1732
2017-01-20T08:36:57.655Z,1732
2017-01-20T08:37:57.679Z,1732
2017-01-20T08:38:57.702Z,1724
2017-01-20T08:39:57.728Z,1724
2017-01-20T08:40:58.145Z,1724
2017-01-20T08:41:57.781Z,1728
2017-01-20T08:42:57.418Z,1748
2017-01-20T08:43:57.434Z,1768
2017-01-20T08:44:58.250Z,1792
2017-01-20T08:45:57.892Z,1812
2017-01-20T08:46:57.512Z,1848
2017-01-20T08:47:58.721Z,1888
2017-01-20T08:48:58.746Z,1928
2017-01-20T08:49:58.378Z,1952
2017-01-20T08:50:58.393Z,1968
2017-01-20T08:51:58.032Z,1968
2017-01-20T08:52:58.461Z,1972
2017-01-20T08:53:58.081Z,1964
2017-01-20T08:54:58.106Z,1952
2017-01-20T08:55:58.136Z,1928
2017-01-20T08:56:58.557Z,1908
2017-01-20T08:57:58.176Z,1880
2017-01-20T08:58:59.005Z,1864
2017-01-20T08:59:58.626Z,1848
2017-01-20T09:00:57.862Z,1828
2017-01-20T09:01:58.684Z,1804
2017-01-20T09:02:59.100Z,1784
2017-01-20T09:03:58.737Z,1764
2017-01-20T09:04:58.362Z,1748
2017-01-20T09:05:58.382Z,1728
2017-01-20T09:06:58.399Z,1716
2017-01-20T09:07:58.444Z,1696
2017-01-20T09:08:58.065Z,1680
2017-01-20T09:09:58.881Z,1660
2017-01-20T09:10:58.523Z,1640
2017-01-20T09:11:58.930Z,1624
2017-01-20T09:12:58.592Z,1608
2017-01-20T09:13:59.379Z,1592
2017-01-20T09:14:59.004Z,1580
2017-01-20T09:15:58.645Z,1560
2017-01-20T09:16:58.262Z,1552
2017-01-20T09:17:58.719Z,1536
2017-01-20T09:18:59.111Z,1528
2017-01-20T09:19:58.744Z,1516
2017-01-20T09:20:58.772Z,1496
2017-01-20T09:21:58.794Z,1488
2017-01-20T09:22:59.243Z,1480
2017-01-20T09:23:59.240Z,1468
2017-01-20T09:24:58.859Z,1460
2017-01-20T09:25:59.297Z,1460
2017-01-20T09:26:58.913Z,1468
2017-01-20T09:27:59.338Z,1480
2017-01-20T09:28:58.973Z,1492
2017-01-20T09:29:59.791Z,1500
2017-01-20T09:30:59.806Z,1512
2017-01-20T09:31:59.845Z,1512
2017-01-20T09:32:59.075Z,1520
2017-01-20T09:33:59.098Z,1528
2017-01-20T09:34:59.111Z,1532
2017-01-20T09:35:59.950Z,1532
2017-01-20T09:36:58.786Z,1532
2017-01-20T09:37:58.801Z,1528
2017-01-20T09:38:58.830Z,1528
2017-01-20T09:39:59.255Z,1528
2017-01-20T09:40:59.667Z,1536
2017-01-20T09:41:58.895Z,1548
2017-01-20T09:42:59.380Z,1560
2017-01-20T09:43:59.746Z,1564
2017-01-20T09:45:00.171Z,1576
2017-01-20T09:45:59.404Z,1584
2017-01-20T09:47:00.224Z,1596
2017-01-20T09:47:59.849Z,1604
2017-01-20T09:48:59.884Z,1608
2017-01-20T09:49:59.522Z,1612
2017-01-20T09:50:59.535Z,1612
2017-01-20T09:51:59.160Z,1608
2017-01-20T09:52:59.597Z,1600
2017-01-20T09:53:59.214Z,1584
2017-01-20T09:54:59.631Z,1592
2017-01-20T09:56:00.460Z,1564
2017-01-20T09:57:00.477Z,1540
2017-01-20T09:58:00.125Z,1516
2017-01-20T09:59:00.134Z,1496
2017-01-20T09:59:59.763Z,1472
2017-01-20T10:00:59.794Z,1432
2017-01-20T10:02:00.204Z,1404
2017-01-20T10:03:00.237Z,1380
2017-01-20T10:04:00.258Z,1328
2017-01-20T10:05:00.290Z,1272
2017-01-20T10:05:59.920Z,1248
2017-01-20T10:07:00.740Z,1236
2017-01-20T10:07:59.589Z,1220
2017-01-20T10:08:59.590Z,1212
2017-01-20T10:10:00.418Z,1232
2017-01-20T10:11:00.839Z,1240
2017-01-20T10:12:00.896Z,1276
2017-01-20T10:13:00.884Z,1372
2017-01-20T10:14:00.137Z,1484
2017-01-20T10:15:00.150Z,1612
2017-01-20T10:16:00.967Z,1728
2017-01-20T10:17:00.212Z,1812
2017-01-20T10:18:00.613Z,1860
2017-01-20T10:19:00.261Z,1880
2017-01-20T10:20:00.665Z,1892
2017-01-20T10:21:00.334Z,1900
2017-01-20T10:21:59.931Z,1904
2017-01-20T10:23:00.348Z,1912
2017-01-20T10:24:01.172Z,1932
2017-01-20T10:25:00.797Z,1940
2017-01-20T10:26:00.434Z,1960
2017-01-20T10:27:01.246Z,1964
2017-01-20T10:28:00.871Z,1968
2017-01-20T10:29:00.108Z,1984
2017-01-20T10:30:00.532Z,2028
2017-01-20T10:31:00.165Z,2072
2017-01-20T10:32:00.977Z,2132
2017-01-20T10:33:00.210Z,2164
2017-01-20T10:34:01.060Z,2172
2017-01-20T10:35:01.456Z,2204
2017-01-20T10:36:01.084Z,2204
2017-01-20T10:37:00.313Z,2216
2017-01-20T10:38:00.730Z,2224
2017-01-20T10:39:01.159Z,2236
2017-01-20T10:40:01.187Z,2248
2017-01-20T10:41:01.200Z,2256
2017-01-20T10:42:00.838Z,2260
2017-01-20T10:43:00.857Z,2268
2017-01-20T10:44:00.886Z,2264
2017-01-20T10:45:00.911Z,2264
2017-01-20T10:46:00.540Z,2164
2017-01-20T10:47:01.365Z,1764
2017-01-20T10:48:00.598Z,1380
2017-01-20T10:49:01.022Z,1292
2017-01-20T10:50:01.439Z,1272
2017-01-20T10:51:01.460Z,1292
2017-01-20T10:52:01.493Z,1320
2017-01-20T10:53:01.121Z,1316
2017-01-20T10:54:00.749Z,1312
2017-01-20T10:55:01.567Z,1356
2017-01-20T10:56:01.196Z,1392
2017-01-20T10:57:01.227Z,1408
2017-01-20T10:58:02.038Z,1416
2017-01-20T10:59:02.071Z,1448
2017-01-20T11:00:00.910Z,1604
2017-01-20T11:01:01.323Z,1932
2017-01-20T11:02:01.752Z,2068
2017-01-20T11:03:01.774Z,1744
2017-01-20T11:04:01.403Z,1372
2017-01-20T11:05:01.432Z,1244
2017-01-20T11:06:01.847Z,1252
2017-01-20T11:07:01.872Z,1288
2017-01-20T11:08:01.906Z,1400
2017-01-20T11:09:01.533Z,1784
2017-01-20T11:10:01.563Z,2284
2017-01-20T11:11:02.008Z,2560
2017-01-20T11:12:01.612Z,2608
2017-01-20T11:13:01.657Z,2560
2017-01-20T11:14:02.065Z,2532
2017-01-20T11:15:02.486Z,2580
2017-01-20T11:16:02.130Z,2640
2017-01-20T11:17:01.740Z,2708
2017-01-20T11:18:01.768Z,2828
2017-01-20T11:19:02.177Z,2916
2017-01-20T11:20:02.221Z,2968
2017-01-20T11:21:02.255Z,3076
2017-01-20T11:22:02.668Z,3144
2017-01-20T11:23:02.680Z,3156
2017-01-20T11:24:02.304Z,3156
2017-01-20T11:25:02.345Z,3180
2017-01-20T11:26:01.610Z,3112
2017-01-20T11:27:02.798Z,3092
2017-01-20T11:28:02.027Z,3088
2017-01-20T11:29:02.445Z,3048
2017-01-20T11:30:02.069Z,3028
2017-01-20T11:31:02.898Z,3016
2017-01-20T11:32:02.131Z,2976
2017-01-20T11:33:02.159Z,2972
2017-01-20T11:34:02.176Z,2952
2017-01-20T11:35:02.613Z,2908
2017-01-20T11:36:01.846Z,2880
2017-01-20T11:37:01.863Z,2876
2017-01-20T11:38:03.080Z,2828
2017-01-20T11:39:02.308Z,2808
2017-01-20T11:40:02.728Z,2776
2017-01-20T11:41:01.970Z,2728
2017-01-20T11:42:02.391Z,2684
2017-01-20T11:43:02.024Z,2656
2017-01-20T11:44:02.056Z,2608
2017-01-20T11:45:02.477Z,2576
2017-01-20T11:46:03.293Z,2560
2017-01-20T11:47:03.308Z,2524
2017-01-20T11:48:02.551Z,2476
2017-01-20T11:49:02.607Z,2440
2017-01-20T11:50:02.202Z,2396
2017-01-20T11:51:02.673Z,2332
2017-01-20T11:52:02.678Z,2304
2017-01-20T11:53:02.287Z,2264
2017-01-20T11:54:03.103Z,2224
2017-01-20T11:55:03.129Z,2180
2017-01-20T11:56:02.776Z,2144
2017-01-20T11:57:02.773Z,2088
2017-01-20T11:58:03.231Z,2044
2017-01-20T11:59:02.839Z,1996
2017-01-20T12:00:03.652Z,1960
2017-01-20T12:01:02.495Z,1916
2017-01-20T12:02:02.933Z,1888
2017-01-20T12:03:03.356Z,1844
2017-01-20T12:04:03.370Z,1824
2017-01-20T12:05:03.796Z,1792
2017-01-20T12:06:03.015Z,1764
2017-01-20T12:07:03.053Z,1740
2017-01-20T12:08:03.465Z,1712
2017-01-20T12:09:03.091Z,1664
2017-01-20T12:10:03.125Z,1604
2017-01-20T12:11:03.539Z,1588
2017-01-20T12:12:03.568Z,1528
2017-01-20T12:13:03.196Z,1484
2017-01-20T12:14:03.616Z,1492
2017-01-20T12:15:03.257Z,1500
2017-01-20T12:16:03.278Z,1488
2017-01-20T12:17:03.746Z,1476
2017-01-20T12:18:03.328Z,1484
2017-01-20T12:19:04.152Z,1468
2017-01-20T12:20:04.178Z,1456
2017-01-20T12:21:03.823Z,1424
2017-01-20T12:22:03.446Z,1408
2017-01-20T12:23:04.302Z,1396
2017-01-20T12:24:03.092Z,1376
2017-01-20T12:25:03.909Z,1348
2017-01-20T12:26:03.150Z,1332
2017-01-20T12:27:03.994Z,1308
2017-01-20T12:28:04.010Z,1288
2017-01-20T12:29:04.019Z,1276
2017-01-20T12:30:03.648Z,1264
2017-01-20T12:31:04.113Z,1240
2017-01-20T12:32:04.125Z,1232
2017-01-20T12:33:03.330Z,1228
2017-01-20T12:34:04.603Z,1204
2017-01-20T12:35:03.807Z,1200
2017-01-20T12:36:04.592Z,1184
2017-01-20T12:37:03.829Z,1176
2017-01-20T12:38:03.457Z,1156
2017-01-20T12:39:03.887Z,1140
2017-01-20T12:40:03.512Z,1132
2017-01-20T12:41:04.376Z,1124
2017-01-20T12:42:03.958Z,1112
2017-01-20T12:43:03.986Z,1104
2017-01-20T12:44:04.014Z,1104
2017-01-20T12:45:04.829Z,1088
2017-01-20T12:46:03.659Z,1080
2017-01-20T12:47:03.693Z,1064
2017-01-20T12:48:04.120Z,1056
2017-01-20T12:49:04.146Z,1060
2017-01-20T12:50:04.167Z,1048
2017-01-20T12:51:05.011Z,1040
2017-01-20T12:52:04.616Z,1016
2017-01-20T12:53:04.646Z,1016
2017-01-20T12:54:04.666Z,1016
2017-01-20T12:55:04.692Z,1008
2017-01-20T12:56:04.332Z,996
2017-01-20T12:57:04.796Z,992
2017-01-20T12:58:04.773Z,992
2017-01-20T12:59:04.002Z,988
2017-01-20T13:00:04.822Z,976
2017-01-20T13:01:05.275Z,976
2017-01-20T13:02:04.520Z,968
2017-01-20T13:03:04.517Z,968
2017-01-20T13:04:04.958Z,968
2017-01-20T13:05:04.554Z,968
2017-01-20T13:06:04.587Z,960
2017-01-20T13:07:04.212Z,952
2017-01-20T13:08:05.033Z,952
2017-01-20T13:09:05.082Z,944
2017-01-20T13:10:05.106Z,944
2017-01-20T13:11:05.543Z,948
2017-01-20T13:12:05.152Z,940
2017-01-20T13:13:05.557Z,940
2017-01-20T13:14:05.196Z,936
2017-01-20T13:15:05.646Z,932
2017-01-20T13:16:04.879Z,928
2017-01-20T13:17:04.867Z,928
2017-01-20T13:18:04.499Z,920
2017-01-20T13:19:05.712Z,920
2017-01-20T13:20:04.953Z,908
2017-01-20T13:21:05.395Z,908
2017-01-20T13:22:04.626Z,904
2017-01-20T13:23:05.420Z,896
2017-01-20T13:24:05.052Z,896
2017-01-20T13:25:05.465Z,900
2017-01-20T13:26:05.109Z,884
2017-01-20T13:27:04.723Z,876
2017-01-20T13:28:05.679Z,872
2017-01-20T13:29:05.572Z,872
2017-01-20T13:30:05.597Z,864
2017-01-20T13:31:05.631Z,860
2017-01-20T13:32:06.054Z,864
2017-01-20T13:33:05.355Z,864
2017-01-20T13:34:04.899Z,856
2017-01-20T13:35:04.936Z,852
2017-01-20T13:36:05.001Z,852
2017-01-20T13:37:05.383Z,852
2017-01-20T13:38:05.862Z,840
2017-01-20T13:39:06.232Z,832
2017-01-20T13:40:05.464Z,832
2017-01-20T13:41:05.894Z,832
2017-01-20T13:42:05.505Z,828
2017-01-20T13:43:05.966Z,824
2017-01-20T13:44:05.168Z,812
2017-01-20T13:45:05.663Z,804
2017-01-20T13:46:05.616Z,796
2017-01-20T13:47:05.253Z,796
2017-01-20T13:48:06.457Z,800
2017-01-20T13:49:05.714Z,804
2017-01-20T13:50:05.755Z,796
2017-01-20T13:51:06.568Z,780
2017-01-20T13:52:06.213Z,780
2017-01-20T13:53:06.181Z,784
2017-01-20T13:54:06.614Z,784
2017-01-20T13:55:06.239Z,780
2017-01-20T13:56:06.664Z,772
2017-01-20T13:57:06.332Z,776
2017-01-20T13:58:05.534Z,768
2017-01-20T13:59:05.558Z,764
2017-01-20T14:00:06.367Z,764
2017-01-20T14:01:06.399Z,760
2017-01-20T14:02:06.023Z,752
2017-01-20T14:03:06.048Z,756
2017-01-20T14:04:06.085Z,752
2017-01-20T14:05:06.098Z,752
2017-01-20T14:06:06.522Z,744
2017-01-20T14:07:06.947Z,740